sensor_id;sensor_type;location;lat;lon;timestamp;temperature;humidity
10702;DHT22;5402;50.004;8.246;2023-04-05T00:02:00;3.80;99.90
10702;DHT22;5402;50.004;8.246;2023-04-05T00:04:27;3.80;99.90
10702;DHT22;5402;50.004;8.246;2023-04-05T00:06:55;3.80;99.90
10702;DHT22;5402;50.004;8.246;2023-04-05T00:09:21;3.70;99.90
10702;DHT22;5402;50.004;8.246;2023-04-05T00:11:48;3.70;99.90
10702;DHT22;5402;50.004;8.246;2023-04-05T00:14:16;3.70;99.90
10702;DHT22;5402;50.004;8.246;2023-04-05T00:16:43;3.70;99.90
10702;DHT22;5402;50.004;8.246;2023-04-05T00:19:10;3.70;99.90
10702;DHT22;5402;50.004;8.246;2023-04-05T00:21:38;3.70;99.90
10702;DHT22;5402;50.004;8.246;2023-04-05T00:24:06;3.70;99.90
10702;DHT22;5402;50.004;8.246;2023-04-05T00:26:39;3.70;99.90
10702;DHT22;5402;50.004;8.246;2023-04-05T00:29:07;3.70;99.90
10702;DHT22;5402;50.004;8.246;2023-04-05T00:31:35;3.70;99.90
10702;DHT22;5402;50.004;8.246;2023-04-05T00:34:02;3.70;99.90
10702;DHT22;5402;50.004;8.246;2023-04-05T00:36:30;3.70;99.90
10702;DHT22;5402;50.004;8.246;2023-04-05T00:38:57;3.70;99.90
10702;DHT22;5402;50.004;8.246;2023-04-05T00:41:23;3.60;99.90
10702;DHT22;5402;50.004;8.246;2023-04-05T00:43:50;3.60;99.90
10702;DHT22;5402;50.004;8.246;2023-04-05T00:46:17;3.60;99.90
10702;DHT22;5402;50.004;8.246;2023-04-05T00:48:46;3.60;99.90
10702;DHT22;5402;50.004;8.246;2023-04-05T00:51:13;3.50;99.90
10702;DHT22;5402;50.004;8.246;2023-04-05T00:53:41;3.40;99.90
10702;DHT22;5402;50.004;8.246;2023-04-05T00:56:09;3.40;99.90
10702;DHT22;5402;50.004;8.246;2023-04-05T00:58:37;3.40;99.90
10702;DHT22;5402;50.004;8.246;2023-04-05T01:01:11;3.40;99.90
10702;DHT22;5402;50.004;8.246;2023-04-05T01:03:42;3.40;99.90
10702;DHT22;5402;50.004;8.246;2023-04-05T01:06:18;3.30;99.90
10702;DHT22;5402;50.004;8.246;2023-04-05T01:08:51;3.30;99.90
10702;DHT22;5402;50.004;8.246;2023-04-05T01:11:22;3.30;99.90
10702;DHT22;5402;50.004;8.246;2023-04-05T01:13:49;3.30;99.90
10702;DHT22;5402;50.004;8.246;2023-04-05T01:16:16;3.30;99.90
10702;DHT22;5402;50.004;8.246;2023-04-05T01:18:43;3.20;99.90
10702;DHT22;5402;50.004;8.246;2023-04-05T01:24:15;3.20;99.90
10702;DHT22;5402;50.004;8.246;2023-04-05T01:26:55;3.20;99.90
10702;DHT22;5402;50.004;8.246;2023-04-05T01:29:43;3.10;99.90
10702;DHT22;5402;50.004;8.246;2023-04-05T01:32:17;3.10;99.90
10702;DHT22;5402;50.004;8.246;2023-04-05T01:34:50;3.10;99.90
10702;DHT22;5402;50.004;8.246;2023-04-05T01:37:23;3.00;99.90
10702;DHT22;5402;50.004;8.246;2023-04-05T01:39:51;3.00;99.90
10702;DHT22;5402;50.004;8.246;2023-04-05T01:42:22;2.90;99.90
10702;DHT22;5402;50.004;8.246;2023-04-05T01:44:52;2.90;99.90
10702;DHT22;5402;50.004;8.246;2023-04-05T01:47:19;2.90;99.90
10702;DHT22;5402;50.004;8.246;2023-04-05T01:49:46;2.90;99.90
10702;DHT22;5402;50.004;8.246;2023-04-05T01:52:12;2.90;99.90
10702;DHT22;5402;50.004;8.246;2023-04-05T01:54:40;2.80;99.90
10702;DHT22;5402;50.004;8.246;2023-04-05T01:57:06;2.80;99.90
10702;DHT22;5402;50.004;8.246;2023-04-05T01:59:33;2.80;99.90
10702;DHT22;5402;50.004;8.246;2023-04-05T02:02:01;2.80;99.90
10702;DHT22;5402;50.004;8.246;2023-04-05T02:04:28;2.80;99.90
10702;DHT22;5402;50.004;8.246;2023-04-05T02:06:55;2.70;99.90
10702;DHT22;5402;50.004;8.246;2023-04-05T02:09:21;2.70;99.90
10702;DHT22;5402;50.004;8.246;2023-04-05T02:11:48;2.70;99.90
10702;DHT22;5402;50.004;8.246;2023-04-05T02:14:15;2.70;99.90
10702;DHT22;5402;50.004;8.246;2023-04-05T02:16:41;2.60;99.90
10702;DHT22;5402;50.004;8.246;2023-04-05T02:19:10;2.60;99.90
10702;DHT22;5402;50.004;8.246;2023-04-05T02:21:37;2.60;99.90
10702;DHT22;5402;50.004;8.246;2023-04-05T02:24:05;2.50;99.90
10702;DHT22;5402;50.004;8.246;2023-04-05T02:26:32;2.60;99.90
10702;DHT22;5402;50.004;8.246;2023-04-05T02:28:59;2.50;99.90
10702;DHT22;5402;50.004;8.246;2023-04-05T02:31:25;2.50;99.90
10702;DHT22;5402;50.004;8.246;2023-04-05T02:33:52;2.50;99.90
10702;DHT22;5402;50.004;8.246;2023-04-05T02:36:20;2.50;99.90
10702;DHT22;5402;50.004;8.246;2023-04-05T02:38:47;2.40;99.90
10702;DHT22;5402;50.004;8.246;2023-04-05T02:41:15;2.30;99.90
10702;DHT22;5402;50.004;8.246;2023-04-05T02:43:42;2.20;99.90
10702;DHT22;5402;50.004;8.246;2023-04-05T02:46:08;2.10;99.90
10702;DHT22;5402;50.004;8.246;2023-04-05T02:48:35;2.00;99.90
10702;DHT22;5402;50.004;8.246;2023-04-05T02:51:02;2.00;99.90
10702;DHT22;5402;50.004;8.246;2023-04-05T02:53:30;1.90;99.90
10702;DHT22;5402;50.004;8.246;2023-04-05T02:55:57;2.00;99.90
10702;DHT22;5402;50.004;8.246;2023-04-05T02:58:24;1.90;99.90
10702;DHT22;5402;50.004;8.246;2023-04-05T03:00:51;1.90;99.90
10702;DHT22;5402;50.004;8.246;2023-04-05T03:03:21;1.80;99.90
10702;DHT22;5402;50.004;8.246;2023-04-05T03:05:55;1.80;99.90
10702;DHT22;5402;50.004;8.246;2023-04-05T03:08:22;1.80;99.90
10702;DHT22;5402;50.004;8.246;2023-04-05T03:10:51;1.70;99.90
10702;DHT22;5402;50.004;8.246;2023-04-05T03:13:18;1.70;99.90
10702;DHT22;5402;50.004;8.246;2023-04-05T03:15:44;1.70;99.90
10702;DHT22;5402;50.004;8.246;2023-04-05T03:18:11;1.70;99.90
10702;DHT22;5402;50.004;8.246;2023-04-05T03:20:38;1.80;99.90
10702;DHT22;5402;50.004;8.246;2023-04-05T03:23:06;1.80;99.90
10702;DHT22;5402;50.004;8.246;2023-04-05T03:25:33;1.60;99.90
10702;DHT22;5402;50.004;8.246;2023-04-05T03:28:02;1.40;99.90
10702;DHT22;5402;50.004;8.246;2023-04-05T03:30:30;1.40;99.90
10702;DHT22;5402;50.004;8.246;2023-04-05T03:32:57;1.30;99.90
10702;DHT22;5402;50.004;8.246;2023-04-05T03:35:26;1.20;99.90
10702;DHT22;5402;50.004;8.246;2023-04-05T03:37:52;1.20;99.90
10702;DHT22;5402;50.004;8.246;2023-04-05T03:40:19;1.20;99.90
10702;DHT22;5402;50.004;8.246;2023-04-05T03:42:46;1.20;99.90
10702;DHT22;5402;50.004;8.246;2023-04-05T03:45:14;1.10;99.90
10702;DHT22;5402;50.004;8.246;2023-04-05T03:47:41;1.10;99.90
10702;DHT22;5402;50.004;8.246;2023-04-05T03:50:08;1.10;99.90
10702;DHT22;5402;50.004;8.246;2023-04-05T03:52:35;1.00;99.90
10702;DHT22;5402;50.004;8.246;2023-04-05T03:55:02;1.00;99.90
10702;DHT22;5402;50.004;8.246;2023-04-05T03:57:29;1.00;99.90
10702;DHT22;5402;50.004;8.246;2023-04-05T03:59:56;1.00;99.90
10702;DHT22;5402;50.004;8.246;2023-04-05T04:02:25;1.00;99.90
10702;DHT22;5402;50.004;8.246;2023-04-05T04:04:51;0.90;99.90
10702;DHT22;5402;50.004;8.246;2023-04-05T04:07:18;0.80;99.90
10702;DHT22;5402;50.004;8.246;2023-04-05T04:09:46;0.80;99.90
10702;DHT22;5402;50.004;8.246;2023-04-05T04:12:13;0.70;99.90
10702;DHT22;5402;50.004;8.246;2023-04-05T04:14:39;0.70;99.90
10702;DHT22;5402;50.004;8.246;2023-04-05T04:17:06;0.60;99.90
10702;DHT22;5402;50.004;8.246;2023-04-05T04:19:34;0.60;99.90
10702;DHT22;5402;50.004;8.246;2023-04-05T04:22:01;0.60;99.90
10702;DHT22;5402;50.004;8.246;2023-04-05T04:24:28;0.70;99.90
10702;DHT22;5402;50.004;8.246;2023-04-05T04:26:57;0.80;99.90
10702;DHT22;5402;50.004;8.246;2023-04-05T04:29:23;0.80;99.90
10702;DHT22;5402;50.004;8.246;2023-04-05T04:31:55;0.80;99.90
10702;DHT22;5402;50.004;8.246;2023-04-05T04:34:22;0.80;99.90
10702;DHT22;5402;50.004;8.246;2023-04-05T04:36:51;0.70;99.90
10702;DHT22;5402;50.004;8.246;2023-04-05T04:39:25;0.70;99.90
10702;DHT22;5402;50.004;8.246;2023-04-05T04:41:52;0.70;99.90
10702;DHT22;5402;50.004;8.246;2023-04-05T04:44:19;0.70;99.90
10702;DHT22;5402;50.004;8.246;2023-04-05T04:46:52;0.70;99.90
10702;DHT22;5402;50.004;8.246;2023-04-05T04:49:19;0.70;99.90
10702;DHT22;5402;50.004;8.246;2023-04-05T04:51:46;0.80;99.90
10702;DHT22;5402;50.004;8.246;2023-04-05T04:54:14;0.80;99.90
10702;DHT22;5402;50.004;8.246;2023-04-05T04:56:45;0.80;99.90
10702;DHT22;5402;50.004;8.246;2023-04-05T04:59:12;0.80;99.90
10702;DHT22;5402;50.004;8.246;2023-04-05T05:01:40;0.80;99.90
10702;DHT22;5402;50.004;8.246;2023-04-05T05:04:07;0.70;99.90
10702;DHT22;5402;50.004;8.246;2023-04-05T05:06:33;0.70;99.90
10702;DHT22;5402;50.004;8.246;2023-04-05T05:09:00;0.70;99.90
10702;DHT22;5402;50.004;8.246;2023-04-05T05:11:28;0.60;99.90
10702;DHT22;5402;50.004;8.246;2023-04-05T05:13:55;0.60;99.90
10702;DHT22;5402;50.004;8.246;2023-04-05T05:16:22;0.60;99.90
10702;DHT22;5402;50.004;8.246;2023-04-05T05:18:49;0.60;99.90
10702;DHT22;5402;50.004;8.246;2023-04-05T05:21:16;0.60;99.90
10702;DHT22;5402;50.004;8.246;2023-04-05T05:23:43;0.60;99.90
10702;DHT22;5402;50.004;8.246;2023-04-05T05:26:10;0.60;99.90
10702;DHT22;5402;50.004;8.246;2023-04-05T05:28:38;0.60;99.90
10702;DHT22;5402;50.004;8.246;2023-04-05T05:31:05;0.60;99.90
10702;DHT22;5402;50.004;8.246;2023-04-05T05:33:32;0.60;99.90
10702;DHT22;5402;50.004;8.246;2023-04-05T05:35:58;0.70;99.90
10702;DHT22;5402;50.004;8.246;2023-04-05T05:38:26;0.80;99.90
10702;DHT22;5402;50.004;8.246;2023-04-05T05:40:56;1.00;99.90
10702;DHT22;5402;50.004;8.246;2023-04-05T05:43:23;1.00;99.90
10702;DHT22;5402;50.004;8.246;2023-04-05T05:45:51;1.10;99.90
10702;DHT22;5402;50.004;8.246;2023-04-05T05:48:19;1.20;99.90
10702;DHT22;5402;50.004;8.246;2023-04-05T05:50:45;1.20;99.90
10702;DHT22;5402;50.004;8.246;2023-04-05T05:53:13;1.40;99.90
10702;DHT22;5402;50.004;8.246;2023-04-05T05:55:40;1.50;99.90
10702;DHT22;5402;50.004;8.246;2023-04-05T05:58:07;1.60;99.90
10702;DHT22;5402;50.004;8.246;2023-04-05T06:00:34;1.70;99.90
10702;DHT22;5402;50.004;8.246;2023-04-05T06:03:03;1.80;99.90
10702;DHT22;5402;50.004;8.246;2023-04-05T06:05:30;1.90;99.90
10702;DHT22;5402;50.004;8.246;2023-04-05T06:07:57;2.00;99.90
10702;DHT22;5402;50.004;8.246;2023-04-05T06:10:24;2.00;99.90
10702;DHT22;5402;50.004;8.246;2023-04-05T06:12:52;2.10;99.90
10702;DHT22;5402;50.004;8.246;2023-04-05T06:15:19;2.20;99.90
10702;DHT22;5402;50.004;8.246;2023-04-05T06:17:46;2.30;99.90
10702;DHT22;5402;50.004;8.246;2023-04-05T06:20:14;2.30;99.90
10702;DHT22;5402;50.004;8.246;2023-04-05T06:22:40;2.40;99.90
10702;DHT22;5402;50.004;8.246;2023-04-05T06:25:09;2.40;99.90
10702;DHT22;5402;50.004;8.246;2023-04-05T06:27:37;2.50;99.90
10702;DHT22;5402;50.004;8.246;2023-04-05T06:30:04;2.60;99.90
10702;DHT22;5402;50.004;8.246;2023-04-05T06:32:31;2.70;99.90
10702;DHT22;5402;50.004;8.246;2023-04-05T06:34:59;2.70;99.90
10702;DHT22;5402;50.004;8.246;2023-04-05T06:37:29;2.80;99.90
10702;DHT22;5402;50.004;8.246;2023-04-05T06:39:57;3.00;99.90
10702;DHT22;5402;50.004;8.246;2023-04-05T06:42:24;3.10;99.90
10702;DHT22;5402;50.004;8.246;2023-04-05T06:44:51;3.10;99.90
10702;DHT22;5402;50.004;8.246;2023-04-05T06:47:17;3.20;99.90
10702;DHT22;5402;50.004;8.246;2023-04-05T06:49:44;3.30;99.90
10702;DHT22;5402;50.004;8.246;2023-04-05T06:52:11;3.30;99.90
10702;DHT22;5402;50.004;8.246;2023-04-05T06:54:39;3.40;99.90
10702;DHT22;5402;50.004;8.246;2023-04-05T06:57:06;3.40;99.90
10702;DHT22;5402;50.004;8.246;2023-04-05T06:59:32;3.50;99.90
10702;DHT22;5402;50.004;8.246;2023-04-05T07:01:59;3.50;99.90
10702;DHT22;5402;50.004;8.246;2023-04-05T07:04:26;3.50;99.90
10702;DHT22;5402;50.004;8.246;2023-04-05T07:06:58;3.60;99.90
10702;DHT22;5402;50.004;8.246;2023-04-05T07:09:26;3.70;99.90
10702;DHT22;5402;50.004;8.246;2023-04-05T07:11:56;3.80;99.90
10702;DHT22;5402;50.004;8.246;2023-04-05T07:14:23;3.80;99.90
10702;DHT22;5402;50.004;8.246;2023-04-05T07:16:50;3.90;99.90
10702;DHT22;5402;50.004;8.246;2023-04-05T07:19:17;3.90;99.90
10702;DHT22;5402;50.004;8.246;2023-04-05T07:21:44;4.00;99.90
10702;DHT22;5402;50.004;8.246;2023-04-05T07:24:11;4.00;99.90
10702;DHT22;5402;50.004;8.246;2023-04-05T07:26:37;4.10;99.90
10702;DHT22;5402;50.004;8.246;2023-04-05T07:29:06;4.10;99.90
10702;DHT22;5402;50.004;8.246;2023-04-05T07:31:33;4.20;99.90
10702;DHT22;5402;50.004;8.246;2023-04-05T07:34:00;4.30;99.90
10702;DHT22;5402;50.004;8.246;2023-04-05T07:36:27;4.40;99.90
10702;DHT22;5402;50.004;8.246;2023-04-05T07:38:56;4.40;99.90
10702;DHT22;5402;50.004;8.246;2023-04-05T07:41:23;4.40;99.90
10702;DHT22;5402;50.004;8.246;2023-04-05T07:43:51;4.50;99.90
10702;DHT22;5402;50.004;8.246;2023-04-05T07:46:19;4.50;99.90
10702;DHT22;5402;50.004;8.246;2023-04-05T07:48:46;4.60;99.90
10702;DHT22;5402;50.004;8.246;2023-04-05T07:51:13;4.70;99.90
10702;DHT22;5402;50.004;8.246;2023-04-05T07:53:40;4.90;99.90
10702;DHT22;5402;50.004;8.246;2023-04-05T07:56:08;5.00;99.90
10702;DHT22;5402;50.004;8.246;2023-04-05T07:58:36;5.20;99.90
10702;DHT22;5402;50.004;8.246;2023-04-05T08:01:05;5.50;99.90
10702;DHT22;5402;50.004;8.246;2023-04-05T08:03:33;5.90;99.90
10702;DHT22;5402;50.004;8.246;2023-04-05T08:06:08;7.40;99.90
10702;DHT22;5402;50.004;8.246;2023-04-05T08:08:35;8.90;98.50
10702;DHT22;5402;50.004;8.246;2023-04-05T08:11:02;10.40;97.60
10702;DHT22;5402;50.004;8.246;2023-04-05T08:13:28;10.40;96.00
10702;DHT22;5402;50.004;8.246;2023-04-05T08:15:55;10.10;95.00
10702;DHT22;5402;50.004;8.246;2023-04-05T08:18:22;9.40;95.70
10702;DHT22;5402;50.004;8.246;2023-04-05T08:20:52;8.60;96.50
10702;DHT22;5402;50.004;8.246;2023-04-05T08:23:19;8.00;97.30
10702;DHT22;5402;50.004;8.246;2023-04-05T08:25:46;7.70;99.00
10702;DHT22;5402;50.004;8.246;2023-04-05T08:28:12;7.50;99.80
10702;DHT22;5402;50.004;8.246;2023-04-05T08:30:40;7.40;99.40
10702;DHT22;5402;50.004;8.246;2023-04-05T08:33:07;7.30;99.80
10702;DHT22;5402;50.004;8.246;2023-04-05T08:35:35;7.20;99.30
10702;DHT22;5402;50.004;8.246;2023-04-05T08:38:04;7.20;99.50
10702;DHT22;5402;50.004;8.246;2023-04-05T08:40:38;7.20;99.60
10702;DHT22;5402;50.004;8.246;2023-04-05T08:43:10;7.10;98.90
10702;DHT22;5402;50.004;8.246;2023-04-05T08:45:43;7.20;99.50
10702;DHT22;5402;50.004;8.246;2023-04-05T08:48:10;7.30;99.10
10702;DHT22;5402;50.004;8.246;2023-04-05T08:50:36;7.40;98.80
10702;DHT22;5402;50.004;8.246;2023-04-05T08:53:06;7.50;97.50
10702;DHT22;5402;50.004;8.246;2023-04-05T08:55:35;7.60;98.10
10702;DHT22;5402;50.004;8.246;2023-04-05T08:58:02;7.80;97.90
10702;DHT22;5402;50.004;8.246;2023-04-05T09:00:32;8.00;98.60
10702;DHT22;5402;50.004;8.246;2023-04-05T09:02:59;8.20;98.70
10702;DHT22;5402;50.004;8.246;2023-04-05T09:05:28;8.50;98.00
10702;DHT22;5402;50.004;8.246;2023-04-05T09:07:57;8.70;98.50
10702;DHT22;5402;50.004;8.246;2023-04-05T09:10:26;8.70;98.30
10702;DHT22;5402;50.004;8.246;2023-04-05T09:12:53;9.00;98.20
10702;DHT22;5402;50.004;8.246;2023-04-05T09:15:20;9.00;97.30
10702;DHT22;5402;50.004;8.246;2023-04-05T09:17:49;8.90;96.00
10702;DHT22;5402;50.004;8.246;2023-04-05T09:20:17;8.60;95.10
10702;DHT22;5402;50.004;8.246;2023-04-05T09:22:45;8.50;95.50
10702;DHT22;5402;50.004;8.246;2023-04-05T09:25:34;8.60;95.60
10702;DHT22;5402;50.004;8.246;2023-04-05T09:28:03;8.70;95.30
10702;DHT22;5402;50.004;8.246;2023-04-05T09:30:30;8.60;95.10
10702;DHT22;5402;50.004;8.246;2023-04-05T09:32:57;8.60;94.40
10702;DHT22;5402;50.004;8.246;2023-04-05T09:35:25;8.70;94.80
10702;DHT22;5402;50.004;8.246;2023-04-05T09:37:56;8.80;95.10
10702;DHT22;5402;50.004;8.246;2023-04-05T09:40:40;8.60;94.50
10702;DHT22;5402;50.004;8.246;2023-04-05T09:43:08;8.40;95.20
10702;DHT22;5402;50.004;8.246;2023-04-05T09:45:38;8.40;95.10
10702;DHT22;5402;50.004;8.246;2023-04-05T09:48:06;8.40;95.10
10702;DHT22;5402;50.004;8.246;2023-04-05T09:50:34;8.50;95.50
10702;DHT22;5402;50.004;8.246;2023-04-05T09:53:06;8.60;95.70
10702;DHT22;5402;50.004;8.246;2023-04-05T09:55:33;8.80;95.50
10702;DHT22;5402;50.004;8.246;2023-04-05T09:58:02;8.80;95.50
10702;DHT22;5402;50.004;8.246;2023-04-05T10:00:29;8.80;95.40
10702;DHT22;5402;50.004;8.246;2023-04-05T10:02:56;8.80;95.00
10702;DHT22;5402;50.004;8.246;2023-04-05T10:05:24;8.80;95.50
10702;DHT22;5402;50.004;8.246;2023-04-05T10:07:53;8.80;95.70
10702;DHT22;5402;50.004;8.246;2023-04-05T10:10:21;8.90;95.70
10702;DHT22;5402;50.004;8.246;2023-04-05T10:12:49;8.90;95.20
10702;DHT22;5402;50.004;8.246;2023-04-05T10:15:17;8.80;94.80
10702;DHT22;5402;50.004;8.246;2023-04-05T10:17:47;8.80;95.00
10702;DHT22;5402;50.004;8.246;2023-04-05T10:20:17;8.90;95.40
10702;DHT22;5402;50.004;8.246;2023-04-05T10:23:00;9.30;96.40
10702;DHT22;5402;50.004;8.246;2023-04-05T10:25:37;9.30;95.40
10702;DHT22;5402;50.004;8.246;2023-04-05T10:28:08;9.40;95.20
10702;DHT22;5402;50.004;8.246;2023-04-05T10:30:46;9.30;94.80
10702;DHT22;5402;50.004;8.246;2023-04-05T10:33:19;9.30;94.80
10702;DHT22;5402;50.004;8.246;2023-04-05T10:35:59;9.20;95.50
10702;DHT22;5402;50.004;8.246;2023-04-05T10:38:28;9.20;94.90
10702;DHT22;5402;50.004;8.246;2023-04-05T10:41:02;9.20;94.70
10702;DHT22;5402;50.004;8.246;2023-04-05T10:43:31;9.30;95.20
10702;DHT22;5402;50.004;8.246;2023-04-05T10:46:02;9.40;95.20
10702;DHT22;5402;50.004;8.246;2023-04-05T10:48:39;9.50;95.00
10702;DHT22;5402;50.004;8.246;2023-04-05T10:51:09;9.30;94.20
10702;DHT22;5402;50.004;8.246;2023-04-05T10:53:36;9.20;94.40
10702;DHT22;5402;50.004;8.246;2023-04-05T10:56:05;9.40;94.50
10702;DHT22;5402;50.004;8.246;2023-04-05T10:58:32;9.20;93.60
10702;DHT22;5402;50.004;8.246;2023-04-05T11:01:01;9.20;95.00
10702;DHT22;5402;50.004;8.246;2023-04-05T11:03:45;9.50;95.60
10702;DHT22;5402;50.004;8.246;2023-04-05T11:06:17;9.90;95.40
10702;DHT22;5402;50.004;8.246;2023-04-05T11:08:45;9.80;93.00
10702;DHT22;5402;50.004;8.246;2023-04-05T11:11:15;9.50;93.50
10702;DHT22;5402;50.004;8.246;2023-04-05T11:13:47;9.50;93.70
10702;DHT22;5402;50.004;8.246;2023-04-05T11:16:15;9.40;93.00
10702;DHT22;5402;50.004;8.246;2023-04-05T11:18:46;9.30;93.30
10702;DHT22;5402;50.004;8.246;2023-04-05T11:21:21;9.00;93.50
10702;DHT22;5402;50.004;8.246;2023-04-05T11:24:02;9.00;93.70
10702;DHT22;5402;50.004;8.246;2023-04-05T11:26:31;9.20;93.90
10702;DHT22;5402;50.004;8.246;2023-04-05T11:28:58;9.20;95.00
10702;DHT22;5402;50.004;8.246;2023-04-05T11:31:27;9.50;94.00
10702;DHT22;5402;50.004;8.246;2023-04-05T11:33:57;9.70;93.90
10702;DHT22;5402;50.004;8.246;2023-04-05T11:36:35;9.90;93.40
10702;DHT22;5402;50.004;8.246;2023-04-05T11:39:27;10.20;93.90
10702;DHT22;5402;50.004;8.246;2023-04-05T11:41:58;10.50;93.50
10702;DHT22;5402;50.004;8.246;2023-04-05T11:44:25;10.30;92.00
10702;DHT22;5402;50.004;8.246;2023-04-05T11:46:53;10.10;92.10
10702;DHT22;5402;50.004;8.246;2023-04-05T11:49:21;10.10;92.50
10702;DHT22;5402;50.004;8.246;2023-04-05T11:51:50;10.00;92.10
10702;DHT22;5402;50.004;8.246;2023-04-05T11:54:30;10.00;92.50
10702;DHT22;5402;50.004;8.246;2023-04-05T11:56:57;10.10;92.30
10702;DHT22;5402;50.004;8.246;2023-04-05T11:59:30;10.10;92.30
10702;DHT22;5402;50.004;8.246;2023-04-05T12:01:59;10.20;91.70
10702;DHT22;5402;50.004;8.246;2023-04-05T12:04:25;10.30;93.20
10702;DHT22;5402;50.004;8.246;2023-04-05T12:07:08;9.50;92.10
10702;DHT22;5402;50.004;8.246;2023-04-05T12:09:35;9.70;92.60
10702;DHT22;5402;50.004;8.246;2023-04-05T12:12:01;9.90;92.40
10702;DHT22;5402;50.004;8.246;2023-04-05T12:14:28;10.20;93.00
10702;DHT22;5402;50.004;8.246;2023-04-05T12:16:55;10.40;93.30
10702;DHT22;5402;50.004;8.246;2023-04-05T12:19:23;10.40;92.50
10702;DHT22;5402;50.004;8.246;2023-04-05T12:21:55;10.40;92.80
10702;DHT22;5402;50.004;8.246;2023-04-05T12:24:22;10.40;92.70
10702;DHT22;5402;50.004;8.246;2023-04-05T12:26:49;10.00;92.00
10702;DHT22;5402;50.004;8.246;2023-04-05T12:29:16;9.50;91.90
10702;DHT22;5402;50.004;8.246;2023-04-05T12:31:44;9.20;93.20
10702;DHT22;5402;50.004;8.246;2023-04-05T12:34:12;9.40;93.70
10702;DHT22;5402;50.004;8.246;2023-04-05T12:36:44;9.60;92.80
10702;DHT22;5402;50.004;8.246;2023-04-05T12:39:15;9.40;91.60
10702;DHT22;5402;50.004;8.246;2023-04-05T12:41:42;9.40;92.40
10702;DHT22;5402;50.004;8.246;2023-04-05T12:44:11;9.20;92.00
10702;DHT22;5402;50.004;8.246;2023-04-05T12:46:41;9.40;94.10
10702;DHT22;5402;50.004;8.246;2023-04-05T12:49:10;9.70;93.40
10702;DHT22;5402;50.004;8.246;2023-04-05T12:51:39;9.80;92.00
10702;DHT22;5402;50.004;8.246;2023-04-05T12:54:11;9.80;92.00
10702;DHT22;5402;50.004;8.246;2023-04-05T12:56:38;9.60;91.70
10702;DHT22;5402;50.004;8.246;2023-04-05T12:59:05;9.50;91.60
10702;DHT22;5402;50.004;8.246;2023-04-05T13:01:32;9.50;92.00
10702;DHT22;5402;50.004;8.246;2023-04-05T13:03:59;9.50;92.20
10702;DHT22;5402;50.004;8.246;2023-04-05T13:06:26;9.60;91.80
10702;DHT22;5402;50.004;8.246;2023-04-05T13:08:53;9.70;92.90
10702;DHT22;5402;50.004;8.246;2023-04-05T13:11:22;9.80;92.20
10702;DHT22;5402;50.004;8.246;2023-04-05T13:13:48;9.90;92.30
10702;DHT22;5402;50.004;8.246;2023-04-05T13:16:15;9.90;92.00
10702;DHT22;5402;50.004;8.246;2023-04-05T13:18:42;9.90;92.30
10702;DHT22;5402;50.004;8.246;2023-04-05T13:21:09;9.90;92.10
10702;DHT22;5402;50.004;8.246;2023-04-05T13:23:37;9.90;92.50
10702;DHT22;5402;50.004;8.246;2023-04-05T13:26:05;10.00;92.50
10702;DHT22;5402;50.004;8.246;2023-04-05T13:28:34;10.00;91.60
10702;DHT22;5402;50.004;8.246;2023-04-05T13:31:01;10.00;92.50
10702;DHT22;5402;50.004;8.246;2023-04-05T13:33:30;10.00;92.00
10702;DHT22;5402;50.004;8.246;2023-04-05T13:35:57;10.10;93.20
10702;DHT22;5402;50.004;8.246;2023-04-05T13:38:24;10.10;92.80
10702;DHT22;5402;50.004;8.246;2023-04-05T13:40:50;10.20;91.30
10702;DHT22;5402;50.004;8.246;2023-04-05T13:43:17;10.20;91.50
10702;DHT22;5402;50.004;8.246;2023-04-05T13:45:45;10.20;91.00
10702;DHT22;5402;50.004;8.246;2023-04-05T13:48:13;10.00;91.30
10702;DHT22;5402;50.004;8.246;2023-04-05T13:50:40;10.00;91.70
10702;DHT22;5402;50.004;8.246;2023-04-05T13:53:07;10.00;91.50
10702;DHT22;5402;50.004;8.246;2023-04-05T13:55:34;10.00;91.90
10702;DHT22;5402;50.004;8.246;2023-04-05T13:58:01;10.20;91.00
10702;DHT22;5402;50.004;8.246;2023-04-05T14:00:27;10.20;91.10
10702;DHT22;5402;50.004;8.246;2023-04-05T14:02:56;10.20;91.10
10702;DHT22;5402;50.004;8.246;2023-04-05T14:05:22;10.20;90.90
10702;DHT22;5402;50.004;8.246;2023-04-05T14:07:49;10.20;91.00
10702;DHT22;5402;50.004;8.246;2023-04-05T14:10:16;10.20;90.80
10702;DHT22;5402;50.004;8.246;2023-04-05T14:12:45;10.20;91.40
10702;DHT22;5402;50.004;8.246;2023-04-05T14:15:12;10.40;91.20
10702;DHT22;5402;50.004;8.246;2023-04-05T14:17:39;10.40;90.40
10702;DHT22;5402;50.004;8.246;2023-04-05T14:20:08;10.30;90.70
10702;DHT22;5402;50.004;8.246;2023-04-05T14:22:35;10.30;91.00
10702;DHT22;5402;50.004;8.246;2023-04-05T14:25:02;10.30;90.70
10702;DHT22;5402;50.004;8.246;2023-04-05T14:27:29;10.40;91.00
10702;DHT22;5402;50.004;8.246;2023-04-05T14:29:55;10.40;91.00
10702;DHT22;5402;50.004;8.246;2023-04-05T14:32:22;10.30;90.60
10702;DHT22;5402;50.004;8.246;2023-04-05T14:34:49;10.30;90.70
10702;DHT22;5402;50.004;8.246;2023-04-05T14:37:17;10.40;90.90
10702;DHT22;5402;50.004;8.246;2023-04-05T14:39:44;10.50;91.00
10702;DHT22;5402;50.004;8.246;2023-04-05T14:42:11;10.60;90.90
10702;DHT22;5402;50.004;8.246;2023-04-05T14:44:38;10.60;90.60
10702;DHT22;5402;50.004;8.246;2023-04-05T14:47:04;10.60;90.40
10702;DHT22;5402;50.004;8.246;2023-04-05T14:49:31;10.60;90.40
10702;DHT22;5402;50.004;8.246;2023-04-05T14:51:58;10.40;90.80
10702;DHT22;5402;50.004;8.246;2023-04-05T14:54:26;10.50;91.00
10702;DHT22;5402;50.004;8.246;2023-04-05T14:56:52;10.50;91.20
10702;DHT22;5402;50.004;8.246;2023-04-05T14:59:19;10.60;91.70
10702;DHT22;5402;50.004;8.246;2023-04-05T15:01:47;10.70;91.20
10702;DHT22;5402;50.004;8.246;2023-04-05T15:04:14;10.70;90.70
10702;DHT22;5402;50.004;8.246;2023-04-05T15:06:41;10.70;90.60
10702;DHT22;5402;50.004;8.246;2023-04-05T15:09:09;10.70;91.00
10702;DHT22;5402;50.004;8.246;2023-04-05T15:11:37;10.70;90.80
10702;DHT22;5402;50.004;8.246;2023-04-05T15:14:04;10.70;90.70
10702;DHT22;5402;50.004;8.246;2023-04-05T15:16:32;10.80;91.20
10702;DHT22;5402;50.004;8.246;2023-04-05T15:18:58;10.80;91.00
10702;DHT22;5402;50.004;8.246;2023-04-05T15:21:25;10.80;91.00
10702;DHT22;5402;50.004;8.246;2023-04-05T15:23:52;10.90;90.60
10702;DHT22;5402;50.004;8.246;2023-04-05T15:26:19;10.90;90.30
10702;DHT22;5402;50.004;8.246;2023-04-05T15:28:47;10.70;90.30
10702;DHT22;5402;50.004;8.246;2023-04-05T15:31:14;10.70;90.60
10702;DHT22;5402;50.004;8.246;2023-04-05T15:33:41;10.70;90.70
10702;DHT22;5402;50.004;8.246;2023-04-05T15:36:08;10.80;90.20
10702;DHT22;5402;50.004;8.246;2023-04-05T15:38:36;10.80;90.60
10702;DHT22;5402;50.004;8.246;2023-04-05T15:41:03;10.80;90.40
10702;DHT22;5402;50.004;8.246;2023-04-05T15:43:29;10.80;90.60
10702;DHT22;5402;50.004;8.246;2023-04-05T15:45:58;10.80;90.80
10702;DHT22;5402;50.004;8.246;2023-04-05T15:48:26;10.70;90.40
10702;DHT22;5402;50.004;8.246;2023-04-05T15:50:53;10.70;90.70
10702;DHT22;5402;50.004;8.246;2023-04-05T15:53:20;10.60;90.10
10702;DHT22;5402;50.004;8.246;2023-04-05T15:55:46;10.70;90.60
10702;DHT22;5402;50.004;8.246;2023-04-05T15:58:13;10.50;90.40
10702;DHT22;5402;50.004;8.246;2023-04-05T16:00:40;10.60;90.60
10702;DHT22;5402;50.004;8.246;2023-04-05T16:03:08;10.60;90.40
10702;DHT22;5402;50.004;8.246;2023-04-05T16:05:35;10.50;90.70
10702;DHT22;5402;50.004;8.246;2023-04-05T16:08:02;10.40;90.70